Time;durP1;ratioP1;P1;durP2;ratioP2;P2;SDS_P1;SDS_P2;PMS_P1;PMS_P2;Temp;Humidity;BMP_temperature;BMP_pressure;BME280_temperature;BME280_humidity;BME280_pressure;Samples;Min_cycle;Max_cycle;Signal;HPM_P1;HPM_P2
2022/06/15 00:01:42;;;;;;;3.90;2.30;;;17.20;66.30;;;;;;5002732;28;20026;-76
2022/06/15 00:04:08;;;;;;;5.20;2.77;;;17.20;64.20;;;;;;5002697;28;20030;-76
2022/06/15 00:06:38;;;;;;;5.80;3.07;;;17.10;64.80;;;;;;5003102;28;20022;-76
2022/06/15 00:09:03;;;;;;;6.93;3.10;;;17.10;65.50;;;;;;4986234;28;20141;-77
2022/06/15 00:11:34;;;;;;;5.17;2.90;;;17.00;65.90;;;;;;4953835;28;20053;-77
2022/06/15 00:14:10;;;;;;;4.85;2.92;;;17.00;65.80;;;;;;4954082;28;20015;-76
2022/06/15 00:16:35;;;;;;;5.75;2.47;;;16.90;65.90;;;;;;4953820;28;20010;-76
2022/06/15 00:19:02;;;;;;;5.00;2.73;;;16.90;65.90;;;;;;4985771;28;20069;-77
2022/06/15 00:21:28;;;;;;;;;;;16.80;66.50;;;;;;4970219;28;20036;-77
2022/06/15 00:23:54;;;;;;;4.93;3.05;;;16.80;66.30;;;;;;5002477;28;19933;-76
2022/06/15 00:26:20;;;;;;;5.40;3.03;;;16.80;65.80;;;;;;4990291;28;20034;-76
2022/06/15 00:28:45;;;;;;;3.27;2.70;;;16.80;66.80;;;;;;4985311;28;20018;-76
2022/06/15 00:31:11;;;;;;;5.97;2.70;;;16.70;66.30;;;;;;4985168;28;20094;-76
2022/06/15 00:33:37;;;;;;;9.20;3.03;;;16.70;66.90;;;;;;4969427;28;20026;-76
2022/06/15 00:36:09;;;;;;;6.80;2.67;;;16.70;67.00;;;;;;4968247;28;20325;-76
2022/06/15 00:38:43;;;;;;;4.15;2.45;;;16.70;65.70;;;;;;4970219;28;20329;-76
2022/06/15 00:41:16;;;;;;;4.90;2.67;;;16.60;66.50;;;;;;4969585;28;20381;-76
2022/06/15 00:43:55;;;;;;;8.82;2.67;;;16.50;66.70;;;;;;4969976;28;20033;-76
2022/06/15 00:46:37;;;;;;;6.93;3.60;;;16.50;66.90;;;;;;4957549;28;20019;-76
2022/06/15 00:49:19;;;;;;;5.32;2.67;;;16.40;67.30;;;;;;4969295;28;20022;-76
2022/06/15 00:51:51;;;;;;;4.75;2.70;;;16.40;67.60;;;;;;4984763;28;20041;-77
2022/06/15 00:54:17;;;;;;;5.25;2.50;;;16.40;68.30;;;;;;4953399;28;20026;-76
2022/06/15 00:56:43;;;;;;;3.83;3.00;;;16.40;67.40;;;;;;4969130;28;20391;-77
2022/06/15 00:59:14;;;;;;;3.07;2.77;;;16.30;68.00;;;;;;4985299;28;20026;-76
2022/06/15 01:01:40;;;;;;;3.30;2.90;;;16.30;68.40;;;;;;4953947;28;20290;-76
2022/06/15 01:04:05;;;;;;;5.67;3.27;;;16.30;68.50;;;;;;4971483;28;20025;-76
2022/06/15 01:07:05;;;;;;;5.70;2.80;;;16.30;68.20;;;;;;4956336;28;20265;-76
2022/06/15 01:09:37;;;;;;;2.75;2.20;;;16.30;68.70;;;;;;4975904;28;20014;-76
2022/06/15 01:12:47;;;;;;;6.38;2.78;;;16.30;68.60;;;;;;4988738;28;20202;-76
2022/06/15 01:15:13;;;;;;;5.28;2.78;;;16.20;68.60;;;;;;4988748;28;20137;-76
2022/06/15 01:18:20;;;;;;;4.07;2.73;;;16.20;69.20;;;;;;5005465;28;20034;-76
2022/06/15 01:21:14;;;;;;;3.60;3.05;;;16.20;69.20;;;;;;4988397;28;20018;-76
2022/06/15 01:23:50;;;;;;;5.88;2.80;;;16.10;68.50;;;;;;4972258;28;20173;-76
2022/06/15 01:26:34;;;;;;;5.05;2.58;;;16.10;69.10;;;;;;4973623;28;20084;-77
2022/06/15 01:29:25;;;;;;;5.13;2.60;;;16.10;69.80;;;;;;5005597;28;20019;-76
2022/06/15 01:32:01;;;;;;;3.33;2.90;;;16.00;69.90;;;;;;5005671;28;20045;-76
2022/06/15 01:35:14;;;;;;;5.38;2.53;;;16.00;69.30;;;;;;4972675;28;20077;-76
2022/06/15 01:38:45;;;;;;;3.70;2.55;;;15.90;70.30;;;;;;4979606;22;20046;-69
2022/06/15 01:41:33;;;;;;;4.00;2.50;;;15.90;69.90;;;;;;4979022;28;20332;-69
2022/06/15 01:44:30;;;;;;;3.30;2.08;;;15.90;69.40;;;;;;5025694;28;20259;-68
2022/06/15 01:46:55;;;;;;;3.78;2.65;;;15.90;69.90;;;;;;5025398;28;20075;-68
2022/06/15 01:49:38;;;;;;;3.83;2.50;;;15.90;70.60;;;;;;5025694;28;20021;-69
2022/06/15 01:52:04;;;;;;;4.45;2.30;;;15.90;70.10;;;;;;5026364;28;20045;-68
2022/06/15 01:54:36;;;;;;;3.92;2.60;;;15.80;70.10;;;;;;4993063;28;20040;-68
2022/06/15 01:57:02;;;;;;;5.85;2.60;;;15.80;69.90;;;;;;4993978;28;20021;-68
2022/06/15 01:59:48;;;;;;;5.20;2.97;;;15.80;70.50;;;;;;5008300;28;20177;-69
2022/06/15 02:02:58;;;;;;;4.30;2.78;;;15.70;70.50;;;;;;5018257;28;20347;-69
2022/06/15 02:05:48;;;;;;;5.18;2.90;;;15.70;70.90;;;;;;5008988;28;20059;-69
2022/06/15 02:08:36;;;;;;;3.10;2.55;;;15.60;71.00;;;;;;4995979;28;20037;-68
2022/06/15 02:11:12;;;;;;;4.70;2.97;;;15.60;71.50;;;;;;5043311;28;20018;-69
2022/06/15 02:14:06;;;;;;;5.20;2.53;;;15.50;71.80;;;;;;5025166;28;20018;-69
2022/06/15 02:16:41;;;;;;;3.67;2.65;;;15.50;71.90;;;;;;5025081;28;20036;-69
2022/06/15 02:19:11;;;;;;;4.57;2.78;;;15.50;71.90;;;;;;4993369;28;20107;-69
2022/06/15 02:21:38;;;;;;;4.88;3.03;;;15.50;73.00;;;;;;5025195;28;20025;-69
2022/06/15 02:24:04;;;;;;;;;;;15.40;73.00;;;;;;5005781;28;20025;-69
2022/06/15 02:26:33;;;;;;;5.90;2.47;;;15.40;72.30;;;;;;5041377;28;19905;-69
2022/06/15 02:29:14;;;;;;;5.10;3.00;;;15.40;72.80;;;;;;5024838;28;20236;-69
2022/06/15 02:31:41;;;;;;;5.95;2.75;;;15.30;72.80;;;;;;4992538;28;20371;-69
2022/06/15 02:34:07;;;;;;;4.43;2.95;;;15.20;73.30;;;;;;5008307;28;20028;-69
2022/06/15 02:36:33;;;;;;;4.15;3.05;;;15.20;73.80;;;;;;5020991;28;20072;-70
2022/06/15 02:39:00;;;;;;;4.80;2.80;;;15.20;74.30;;;;;;5005214;28;20029;-69
2022/06/15 02:41:26;;;;;;;3.47;2.85;;;15.20;73.20;;;;;;5005360;28;20093;-69
2022/06/15 02:43:54;;;;;;;4.13;3.13;;;15.20;73.60;;;;;;5041113;28;20228;-69
2022/06/15 02:46:20;;;;;;;4.38;3.10;;;15.10;73.50;;;;;;4995501;28;20037;-69
2022/06/15 02:48:45;;;;;;;6.67;3.17;;;15.10;73.70;;;;;;5024585;28;20041;-69
2022/06/15 02:51:34;;;;;;;4.33;2.73;;;15.10;73.80;;;;;;5008543;28;20022;-69
2022/06/15 02:54:32;;;;;;;4.38;3.30;;;15.10;74.10;;;;;;5027050;28;20033;-69
2022/06/15 02:56:58;;;;;;;6.03;3.27;;;15.00;74.60;;;;;;5010893;28;20412;-69
2022/06/15 02:59:24;;;;;;;4.25;3.42;;;15.00;75.10;;;;;;5024588;28;20317;-69
2022/06/15 03:01:50;;;;;;;6.60;3.60;;;14.90;75.00;;;;;;5042080;28;20119;-69
2022/06/15 03:04:15;;;;;;;4.57;3.00;;;14.90;81.10;;;;;;5041610;28;20048;-69
2022/06/15 03:06:41;;;;;;;6.07;3.13;;;14.90;75.20;;;;;;5042037;28;20300;-69
2022/06/15 03:09:07;;;;;;;5.23;3.20;;;14.90;76.10;;;;;;5022155;28;20022;-69
2022/06/15 03:11:33;;;;;;;5.15;3.28;;;14.90;76.10;;;;;;5025671;28;20043;-69
2022/06/15 03:13:58;;;;;;;3.23;2.83;;;14.80;75.90;;;;;;5041669;28;20359;-69
2022/06/15 03:16:24;;;;;;;4.83;3.00;;;14.80;75.90;;;;;;5042080;28;20021;-69
2022/06/15 03:18:50;;;;;;;4.07;3.10;;;14.80;77.20;;;;;;5040542;28;20080;-69
2022/06/15 03:21:16;;;;;;;4.45;2.88;;;14.90;80.50;;;;;;5041828;28;20250;-69
2022/06/15 03:23:41;;;;;;;4.20;2.72;;;14.90;80.70;;;;;;5041382;28;20249;-70
2022/06/15 03:26:07;;;;;;;6.43;2.90;;;14.90;80.20;;;;;;5040317;28;20025;-70
2022/06/15 03:28:34;;;;;;;3.13;2.67;;;14.70;76.90;;;;;;5041336;28;20257;-70
2022/06/15 03:31:00;;;;;;;5.78;3.08;;;14.70;77.20;;;;;;5041620;28;20017;-69
2022/06/15 03:33:25;;;;;;;5.13;3.03;;;14.70;78.90;;;;;;5019466;28;20351;-69
2022/06/15 03:35:51;;;;;;;5.75;3.20;;;14.70;79.90;;;;;;5021751;28;20033;-70
2022/06/15 03:38:17;;;;;;;5.50;3.13;;;14.70;80.50;;;;;;5021602;28;20429;-69
2022/06/15 03:40:46;;;;;;;3.60;2.90;;;14.40;77.30;;;;;;5031389;28;20059;-70
2022/06/15 03:43:12;;;;;;;6.35;3.55;;;14.40;78.00;;;;;;5007798;28;20029;-70
2022/06/15 03:45:37;;;;;;;3.42;3.05;;;14.30;80.50;;;;;;5023900;28;20044;-69
2022/06/15 03:48:03;;;;;;;7.40;3.63;;;14.40;80.90;;;;;;5040815;28;20037;-70
2022/06/15 03:50:31;;;;;;;5.32;3.38;;;14.40;81.70;;;;;;5041224;28;20316;-70
2022/06/15 03:52:58;;;;;;;6.00;3.30;;;14.50;85.90;;;;;;5023339;28;20025;-70
2022/06/15 03:55:24;;;;;;;;;;;14.30;79.30;;;;;;5023820;28;20029;-70
2022/06/15 03:57:50;;;;;;;4.32;3.15;;;14.30;79.70;;;;;;5023238;28;19905;-69
2022/06/15 04:00:18;;;;;;;4.70;3.40;;;14.40;79.70;;;;;;5041107;28;20218;-69
2022/06/15 04:02:45;;;;;;;5.00;3.72;;;14.40;80.90;;;;;;5040801;28;20040;-69
2022/06/15 04:05:23;;;;;;;9.05;4.40;;;14.40;81.30;;;;;;5040835;28;20063;-70
2022/06/15 04:10:35;;;;;;;6.30;3.83;;;14.50;83.20;;;;;;5040644;28;20056;-70
2022/06/15 04:13:01;;;;;;;4.60;3.58;;;14.50;82.90;;;;;;5040001;28;20022;-70
2022/06/15 04:15:26;;;;;;;5.20;3.50;;;14.50;83.70;;;;;;5040695;28;20097;-70
2022/06/15 04:17:52;;;;;;;7.37;3.40;;;14.50;82.30;;;;;;5039907;28;20029;-69
2022/06/15 04:20:33;;;;;;;4.40;3.20;;;14.40;82.20;;;;;;5040387;28;20025;-69
2022/06/15 04:23:12;;;;;;;6.32;3.97;;;14.40;81.80;;;;;;5035950;28;20109;-69
2022/06/15 04:25:44;;;;;;;4.80;3.92;;;14.40;82.30;;;;;;5039371;28;21056;-69
2022/06/15 04:28:12;;;;;;;9.07;4.55;;;14.50;82.70;;;;;;5039700;28;20312;-69
2022/06/15 04:30:38;;;;;;;8.70;4.13;;;14.40;80.30;;;;;;5022167;28;20279;-69
2022/06/15 04:33:04;;;;;;;7.90;4.63;;;14.20;80.10;;;;;;5040252;28;20037;-69
2022/06/15 04:35:29;;;;;;;6.27;4.47;;;14.20;80.50;;;;;;5039055;28;20025;-69
2022/06/15 04:37:55;;;;;;;5.43;4.00;;;14.10;80.90;;;;;;5040332;28;20029;-69
2022/06/15 04:40:21;;;;;;;5.17;3.70;;;14.10;81.30;;;;;;5044119;28;20034;-69
2022/06/15 04:42:47;;;;;;;7.87;4.30;;;14.20;83.10;;;;;;5042883;28;20025;-69
2022/06/15 04:45:14;;;;;;;8.65;4.45;;;14.30;83.70;;;;;;5026341;28;20112;-69
2022/06/15 04:47:40;;;;;;;;;;;14.50;83.40;;;;;;5044872;28;20032;-69
2022/06/15 04:50:06;;;;;;;4.93;3.92;;;14.70;82.10;;;;;;5026637;28;20108;-69
2022/06/15 04:52:32;;;;;;;6.03;4.03;;;14.80;81.60;;;;;;5043732;28;20028;-69
2022/06/15 04:54:58;;;;;;;8.32;4.78;;;15.00;81.40;;;;;;5026733;28;20256;-68
2022/06/15 04:57:23;;;;;;;7.50;4.23;;;15.10;81.40;;;;;;5044631;28;20312;-69
2022/06/15 04:59:49;;;;;;;9.40;4.23;;;15.20;81.30;;;;;;5044280;28;20080;-69
2022/06/15 05:02:15;;;;;;;7.27;3.83;;;15.30;81.30;;;;;;5025566;28;20055;-69
2022/06/15 05:04:42;;;;;;;6.03;3.67;;;15.30;81.20;;;;;;5042953;28;20013;-68
2022/06/15 05:07:08;;;;;;;7.25;3.85;;;15.40;82.00;;;;;;5044181;28;20040;-68
2022/06/15 05:09:33;;;;;;;9.85;4.10;;;15.40;81.90;;;;;;5026354;28;20045;-68
2022/06/15 05:11:59;;;;;;;9.17;4.27;;;15.50;82.70;;;;;;5042973;28;20218;-68
2022/06/15 05:14:25;;;;;;;5.60;3.90;;;15.50;82.60;;;;;;5039116;28;20052;-69
2022/06/15 05:16:51;;;;;;;6.63;4.70;;;15.50;82.40;;;;;;5043131;28;20021;-71
2022/06/15 05:19:17;;;;;;;11.30;4.73;;;15.50;83.00;;;;;;5043534;28;20029;-68
2022/06/15 05:21:43;;;;;;;9.90;5.00;;;15.60;83.30;;;;;;5032064;28;20295;-68
2022/06/15 05:24:09;;;;;;;;;;;15.60;83.60;;;;;;5043277;28;20099;-68
2022/06/15 05:26:35;;;;;;;7.32;4.25;;;15.70;83.80;;;;;;5043980;28;19909;-68
2022/06/15 05:29:01;;;;;;;7.73;5.00;;;15.70;82.70;;;;;;5043857;28;20075;-68
2022/06/15 05:31:27;;;;;;;8.30;5.00;;;15.70;83.30;;;;;;5042870;28;20040;-68
2022/06/15 05:33:54;;;;;;;9.03;4.77;;;15.70;83.60;;;;;;5043535;28;20096;-68
2022/06/15 05:36:23;;;;;;;9.02;5.07;;;15.80;84.00;;;;;;5043753;28;20033;-68
2022/06/15 05:38:49;;;;;;;7.15;4.18;;;15.80;84.20;;;;;;5043673;28;20159;-68
2022/06/15 05:41:15;;;;;;;10.37;4.83;;;15.90;85.10;;;;;;5043683;28;20124;-68
2022/06/15 05:43:43;;;;;;;6.27;4.37;;;15.90;84.70;;;;;;5043098;28;20018;-68
2022/06/15 05:46:23;;;;;;;8.65;4.85;;;16.00;84.40;;;;;;5042866;28;20316;-68
2022/06/15 05:48:48;;;;;;;8.82;4.20;;;16.00;83.50;;;;;;5042981;28;20354;-68
2022/06/15 05:51:14;;;;;;;6.83;4.67;;;16.10;81.70;;;;;;5042427;28;20079;-68
2022/06/15 05:53:40;;;;;;;7.27;4.40;;;16.20;82.40;;;;;;5042735;28;20025;-68
2022/06/15 05:56:06;;;;;;;18.37;6.00;;;16.30;82.40;;;;;;5043397;28;20063;-68
2022/06/15 05:58:31;;;;;;;12.00;5.57;;;16.30;82.70;;;;;;5042788;28;20021;-68
2022/06/15 06:00:57;;;;;;;6.00;4.03;;;16.40;81.30;;;;;;5043100;28;20212;-68
2022/06/15 06:03:23;;;;;;;10.20;5.17;;;16.40;81.30;;;;;;5024931;28;20187;-68
2022/06/15 06:05:49;;;;;;;9.70;4.97;;;16.50;81.40;;;;;;5042509;28;20180;-68
2022/06/15 06:08:15;;;;;;;9.63;4.93;;;16.60;81.00;;;;;;5042481;28;20284;-68
2022/06/15 06:10:41;;;;;;;7.17;5.03;;;16.70;80.90;;;;;;5024455;28;20045;-68
2022/06/15 06:13:06;;;;;;;9.15;5.82;;;16.80;80.50;;;;;;5042707;28;20047;-68
2022/06/15 06:15:32;;;;;;;10.10;6.50;;;16.90;80.30;;;;;;5042749;28;20050;-68
2022/06/15 06:18:01;;;;;;;7.15;4.68;;;16.90;80.10;;;;;;5042248;28;20025;-68
2022/06/15 06:20:27;;;;;;;8.85;3.95;;;17.10;79.50;;;;;;5042891;28;20035;-68
2022/06/15 06:22:53;;;;;;;10.90;5.88;;;17.20;79.20;;;;;;5042298;28;20097;-68
2022/06/15 06:25:18;;;;;;;6.97;3.83;;;17.30;78.00;;;;;;5041741;28;20037;-68
2022/06/15 06:27:44;;;;;;;10.23;4.40;;;17.50;77.00;;;;;;5042592;28;20076;-68
2022/06/15 06:30:11;;;;;;;10.03;4.00;;;17.70;76.60;;;;;;5042560;28;20021;-68
2022/06/15 06:32:36;;;;;;;7.45;3.75;;;17.80;76.60;;;;;;5008391;28;20025;-68
2022/06/15 06:35:02;;;;;;;4.23;3.53;;;18.00;74.60;;;;;;5041549;28;20275;-68
2022/06/15 06:37:29;;;;;;;4.43;3.57;;;18.10;74.60;;;;;;5042412;28;20033;-68
2022/06/15 06:39:55;;;;;;;6.28;3.53;;;18.20;74.30;;;;;;5024189;28;20044;-67
2022/06/15 06:42:21;;;;;;;6.25;3.38;;;18.40;73.70;;;;;;5024318;28;20096;-68
2022/06/15 06:44:46;;;;;;;4.80;3.50;;;18.40;74.30;;;;;;5042086;28;20044;-67
2022/06/15 06:47:12;;;;;;;7.70;4.20;;;18.50;72.30;;;;;;5042307;28;20316;-68
2022/06/15 06:49:38;;;;;;;4.73;3.30;;;18.60;71.10;;;;;;5042325;28;20024;-68
2022/06/15 06:52:04;;;;;;;10.90;4.07;;;18.70;72.40;;;;;;5041954;28;20255;-67
2022/06/15 06:54:31;;;;;;;5.75;3.30;;;18.80;72.10;;;;;;5034827;28;20048;-67
2022/06/15 06:56:57;;;;;;;6.65;3.38;;;18.80;71.90;;;;;;5034620;28;20319;-67
2022/06/15 06:59:23;;;;;;;8.07;3.43;;;18.90;70.70;;;;;;5033716;28;20125;-67
2022/06/15 07:01:49;;;;;;;11.33;4.53;;;19.10;70.10;;;;;;5030652;28;20029;-67
2022/06/15 07:04:16;;;;;;;6.90;3.15;;;19.20;69.40;;;;;;5032536;28;20041;-67
2022/06/15 07:06:42;;;;;;;8.32;3.70;;;19.30;69.30;;;;;;5033465;28;20014;-68
2022/06/15 07:09:08;;;;;;;10.83;3.53;;;19.30;69.60;;;;;;5030199;28;20667;-67
2022/06/15 07:11:34;;;;;;;7.70;3.47;;;19.40;69.50;;;;;;5015299;28;20025;-67
2022/06/15 07:14:00;;;;;;;5.53;3.10;;;19.40;69.40;;;;;;5032791;28;20018;-67
2022/06/15 07:16:26;;;;;;;5.60;3.58;;;19.40;69.90;;;;;;5031174;28;20025;-67
2022/06/15 07:18:52;;;;;;;6.47;3.63;;;19.50;68.20;;;;;;5032564;28;20033;-67
2022/06/15 07:21:21;;;;;;;8.27;3.55;;;19.60;68.60;;;;;;5038438;28;20115;-68
2022/06/15 07:23:49;;;;;;;6.10;3.45;;;19.60;67.20;;;;;;5041513;28;20029;-68
2022/06/15 07:26:23;;;;;;;6.55;3.03;;;19.70;66.20;;;;;;5041347;28;20086;-67
2022/06/15 07:28:48;;;;;;;5.00;3.17;;;19.90;66.20;;;;;;5040766;28;20030;-68
2022/06/15 07:31:27;;;;;;;9.97;3.87;;;20.00;66.00;;;;;;5041353;28;20024;-69
2022/06/15 07:33:53;;;;;;;4.05;3.20;;;20.00;65.80;;;;;;5041324;28;20029;-68
2022/06/15 07:36:19;;;;;;;5.32;3.35;;;20.00;66.00;;;;;;5040544;28;20048;-68
2022/06/15 07:38:45;;;;;;;5.77;3.60;;;20.10;66.50;;;;;;5041274;28;20242;-68
2022/06/15 07:41:11;;;;;;;5.80;3.60;;;20.20;65.40;;;;;;5040460;28;20382;-68
2022/06/15 07:43:38;;;;;;;6.87;3.43;;;20.40;65.20;;;;;;5040909;28;20079;-68
2022/06/15 07:46:05;;;;;;;6.43;3.70;;;20.40;64.80;;;;;;5041114;28;20022;-68
2022/06/15 07:51:39;;;;;;;8.40;3.70;;;20.60;65.40;;;;;;5021453;28;20091;-68
2022/06/15 07:54:08;;;;;;;5.75;3.20;;;20.70;64.40;;;;;;5004014;28;20312;-68
2022/06/15 07:56:34;;;;;;;6.63;3.45;;;20.80;64.70;;;;;;5021112;28;20030;-67
2022/06/15 07:59:00;;;;;;;5.77;3.60;;;20.90;64.70;;;;;;5021252;28;20346;-68
2022/06/15 08:01:26;;;;;;;5.97;3.60;;;20.90;63.70;;;;;;5021223;28;20219;-68
2022/06/15 08:03:51;;;;;;;5.77;3.00;;;20.90;63.90;;;;;;5028570;28;20221;-68
2022/06/15 08:06:17;;;;;;;7.63;3.00;;;21.00;62.60;;;;;;5040892;28;20099;-68
2022/06/15 08:08:43;;;;;;;7.27;3.40;;;21.00;62.00;;;;;;5023160;28;20022;-68
2022/06/15 08:11:09;;;;;;;5.90;3.27;;;21.10;62.90;;;;;;5023445;28;20664;-68
2022/06/15 08:13:35;;;;;;;6.75;3.72;;;21.20;62.90;;;;;;5040167;28;20063;-68
2022/06/15 08:16:01;;;;;;;5.60;3.27;;;21.30;60.50;;;;;;5040686;28;20033;-68
2022/06/15 08:18:29;;;;;;;4.43;3.50;;;21.30;60.90;;;;;;5023203;28;20029;-68
2022/06/15 08:21:05;;;;;;;4.18;2.90;;;21.40;60.40;;;;;;5007304;28;20040;-68
2022/06/15 08:23:34;;;;;;;8.27;3.22;;;21.40;59.90;;;;;;5022828;28;20021;-68
2022/06/15 08:26:03;;;;;;;5.40;3.08;;;21.50;61.30;;;;;;4994905;28;20021;-68
2022/06/15 08:28:34;;;;;;;6.32;3.10;;;21.50;60.20;;;;;;5003388;28;20372;-68
2022/06/15 08:31:00;;;;;;;6.65;3.50;;;21.50;59.50;;;;;;5003453;28;20052;-68
2022/06/15 08:33:26;;;;;;;6.33;3.23;;;21.60;60.30;;;;;;5024819;28;20025;-68
2022/06/15 08:35:52;;;;;;;6.57;3.20;;;21.60;59.00;;;;;;5022126;28;20029;-68
2022/06/15 08:38:20;;;;;;;3.83;3.05;;;21.70;58.60;;;;;;5040507;28;20351;-68
2022/06/15 08:41:05;;;;;;;6.68;3.10;;;21.80;58.40;;;;;;5040676;28;20030;-68
2022/06/15 08:44:10;;;;;;;6.20;2.95;;;21.80;57.80;;;;;;5023648;28;20071;-68
2022/06/15 08:47:05;;;;;;;7.60;3.35;;;21.90;59.30;;;;;;5008333;28;20177;-67
2022/06/15 08:50:11;;;;;;;7.15;3.90;;;22.00;60.30;;;;;;5040622;28;20280;-68
2022/06/15 08:52:43;;;;;;;7.45;3.58;;;22.10;60.10;;;;;;5023254;28;20036;-68
2022/06/15 08:55:24;;;;;;;5.50;3.00;;;22.20;60.80;;;;;;5039664;28;20236;-68
2022/06/15 08:58:00;;;;;;;5.40;3.22;;;22.30;59.60;;;;;;5022607;28;20085;-68
2022/06/15 09:00:31;;;;;;;4.53;2.95;;;22.40;60.10;;;;;;5022910;28;20057;-68
2022/06/15 09:03:19;;;;;;;7.32;3.13;;;22.50;59.50;;;;;;4991199;28;20056;-68
2022/06/15 09:06:08;;;;;;;;;;;22.50;59.40;;;;;;5025306;28;20024;-68
2022/06/15 09:08:42;;;;;;;5.82;3.72;;;22.60;58.90;;;;;;5022284;28;20218;-68
2022/06/15 09:11:21;;;;;;;9.20;4.22;;;22.70;59.40;;;;;;5022480;28;20055;-68
2022/06/15 09:14:31;;;;;;;6.28;4.25;;;22.70;57.70;;;;;;5006525;28;20047;-68
2022/06/15 09:17:18;;;;;;;8.60;3.55;;;22.80;59.20;;;;;;5027986;28;20017;-68
2022/06/15 09:20:00;;;;;;;5.05;3.38;;;22.80;57.80;;;;;;5025059;28;20021;-68
2022/06/15 09:22:32;;;;;;;4.15;3.03;;;22.90;57.90;;;;;;5018864;28;20034;-68
2022/06/15 09:25:19;;;;;;;4.95;2.72;;;23.00;58.30;;;;;;5005097;28;20022;-68
2022/06/15 09:28:14;;;;;;;5.53;3.25;;;23.20;57.80;;;;;;5006538;28;20017;-71
2022/06/15 09:30:41;;;;;;;5.43;2.97;;;23.40;57.60;;;;;;5009950;28;20022;-67
2022/06/15 09:33:15;;;;;;;5.28;2.40;;;23.40;54.50;;;;;;5006575;28;20181;-67
2022/06/15 09:35:51;;;;;;;5.45;2.60;;;23.50;52.70;;;;;;5011019;28;20048;-67
2022/06/15 09:38:17;;;;;;;4.40;3.10;;;23.50;54.00;;;;;;5007449;28;20104;-67
2022/06/15 09:41:04;;;;;;;5.73;3.10;;;23.60;54.30;;;;;;5039663;28;20225;-67
2022/06/15 09:43:39;;;;;;;5.00;2.90;;;23.60;53.10;;;;;;5039832;28;20042;-67
2022/06/15 09:46:21;;;;;;;5.63;2.95;;;23.60;52.30;;;;;;5025298;28;20025;-67
2022/06/15 09:49:11;;;;;;;4.90;2.95;;;23.60;52.90;;;;;;5022663;28;20338;-67
2022/06/15 09:51:44;;;;;;;4.93;2.35;;;23.70;52.80;;;;;;5043257;28;20028;-67
2022/06/15 09:54:53;;;;;;;4.18;2.67;;;23.70;52.00;;;;;;5025540;28;20017;-67
2022/06/15 09:57:19;;;;;;;;;;;23.70;52.20;;;;;;5022255;28;20041;-67
2022/06/15 09:59:45;;;;;;;4.63;2.70;;;23.80;52.00;;;;;;5042301;28;19909;-67
2022/06/15 10:02:30;;;;;;;9.55;2.72;;;23.90;51.50;;;;;;5025508;28;20100;-67
2022/06/15 10:04:56;;;;;;;7.25;2.90;;;24.00;50.90;;;;;;5025432;28;20090;-67
2022/06/15 10:07:41;;;;;;;4.45;2.42;;;24.10;51.40;;;;;;5009085;28;20305;-67
2022/06/15 10:10:19;;;;;;;4.38;2.35;;;24.20;50.70;;;;;;5009059;28;20029;-67
2022/06/15 10:12:56;;;;;;;4.03;2.28;;;24.20;49.20;;;;;;5042285;28;20336;-67
2022/06/15 10:15:42;;;;;;;6.18;2.83;;;24.20;49.40;;;;;;5042886;28;20029;-67
2022/06/15 10:18:19;;;;;;;4.25;2.60;;;24.20;49.20;;;;;;5028772;28;20057;-67
2022/06/15 10:21:06;;;;;;;6.35;2.47;;;24.20;49.20;;;;;;5005782;28;20022;-67
2022/06/15 10:23:59;;;;;;;11.77;2.60;;;24.30;50.70;;;;;;5006076;28;20025;-67
2022/06/15 10:26:38;;;;;;;5.85;3.05;;;24.30;49.70;;;;;;4976713;28;20033;-67
2022/06/15 10:29:30;;;;;;;5.13;2.97;;;24.40;51.00;;;;;;5005569;28;20021;-67
2022/06/15 10:32:10;;;;;;;3.25;2.38;;;24.50;49.60;;;;;;5021873;28;20081;-67
2022/06/15 10:34:41;;;;;;;4.35;2.63;;;24.50;50.70;;;;;;5031496;28;20089;-67
2022/06/15 10:37:13;;;;;;;3.75;2.28;;;24.50;48.90;;;;;;5024614;28;20025;-67
2022/06/15 10:39:40;;;;;;;9.57;3.38;;;24.60;48.00;;;;;;5025895;28;20055;-67
2022/06/15 10:42:23;;;;;;;5.57;3.05;;;24.60;49.00;;;;;;5020906;28;20316;-67
2022/06/15 10:44:55;;;;;;;3.10;2.50;;;24.70;49.10;;;;;;4989216;28;20030;-67
2022/06/15 10:47:37;;;;;;;7.70;2.33;;;24.80;50.60;;;;;;5001343;28;20018;-67
2022/06/15 10:50:18;;;;;;;5.60;2.55;;;25.00;51.10;;;;;;5024537;28;20040;-67
2022/06/15 10:52:49;;;;;;;4.75;2.35;;;25.10;49.10;;;;;;5024443;28;20037;-67
2022/06/15 11:04:24;;;;;;;2.80;1.90;;;25.70;45.60;;;;;;5042052;28;20044;-67
2022/06/15 11:07:23;;;;;;;2.10;1.90;;;25.80;43.60;;;;;;5042051;28;20017;-67
2022/06/15 11:09:54;;;;;;;4.75;2.22;;;25.90;43.40;;;;;;5035441;28;20041;-67
2022/06/15 11:12:29;;;;;;;2.38;1.80;;;25.90;43.30;;;;;;5041203;28;20056;-67
2022/06/15 11:18:01;;;;;;;2.58;1.55;;;26.00;43.30;;;;;;5024962;28;20036;-67
2022/06/15 11:18:25;;;;;;;2.35;1.90;;;25.90;43.00;;;;;;5027314;28;20037;-67
2022/06/15 11:21:24;;;;;;;4.75;1.80;;;26.00;43.70;;;;;;5041686;28;20025;-67
2022/06/15 11:24:37;;;;;;;4.03;2.20;;;26.20;42.50;;;;;;5023588;28;20224;-67
2022/06/15 11:27:24;;;;;;;4.10;2.03;;;26.30;42.80;;;;;;5040703;28;20021;-67
2022/06/15 11:30:11;;;;;;;5.10;2.78;;;26.40;44.60;;;;;;5010630;28;20021;-67
2022/06/15 11:32:48;;;;;;;14.60;2.78;;;26.50;45.40;;;;;;5023903;28;20122;-66
2022/06/15 11:35:14;;;;;;;5.13;2.25;;;26.70;45.50;;;;;;5023858;28;20083;-66
2022/06/15 11:37:59;;;;;;;2.73;2.17;;;26.70;46.60;;;;;;5040527;28;20025;-66
2022/06/15 11:40:46;;;;;;;3.15;1.60;;;26.80;46.80;;;;;;5023247;28;20359;-66
2022/06/15 11:43:30;;;;;;;3.42;1.88;;;27.10;40.60;;;;;;5041258;28;20049;-68
2022/06/15 11:46:25;;;;;;;2.28;1.88;;;27.30;40.40;;;;;;5040649;28;20560;-67
2022/06/15 11:49:11;;;;;;;5.70;1.90;;;27.40;40.30;;;;;;5040426;28;20021;-67
2022/06/15 11:52:02;;;;;;;5.95;2.00;;;27.50;41.00;;;;;;5041408;28;20319;-67
2022/06/15 11:54:52;;;;;;;2.63;1.50;;;27.50;41.20;;;;;;5040023;28;20023;-67
2022/06/15 11:57:51;;;;;;;2.13;1.30;;;27.50;40.80;;;;;;5041359;28;20173;-67
2022/06/15 12:00:43;;;;;;;4.70;1.58;;;27.60;41.50;;;;;;5030111;28;20021;-67
2022/06/15 12:03:58;;;;;;;2.70;1.65;;;27.70;40.80;;;;;;5041844;28;20284;-67
2022/06/15 12:06:57;;;;;;;5.20;1.98;;;27.90;40.60;;;;;;5021453;28;20075;-67
2022/06/15 12:10:08;;;;;;;3.65;2.00;;;28.20;39.50;;;;;;5021324;28;20312;-67
2022/06/15 12:12:44;;;;;;;2.75;1.90;;;28.20;40.20;;;;;;5013686;28;20025;-67
2022/06/15 12:15:35;;;;;;;3.40;2.17;;;28.30;40.30;;;;;;5023393;28;20035;-67
2022/06/15 12:18:18;;;;;;;6.15;3.15;;;28.40;40.50;;;;;;5023486;28;20013;-67
2022/06/15 12:21:06;;;;;;;3.50;2.20;;;28.50;40.50;;;;;;5023274;28;20013;-67
2022/06/15 12:23:40;;;;;;;;;;;28.70;40.10;;;;;;5041027;28;20300;-66
2022/06/15 12:26:27;;;;;;;4.65;2.20;;;28.80;40.50;;;;;;5040984;28;19905;-67
2022/06/15 12:29:41;;;;;;;2.80;2.00;;;28.90;39.50;;;;;;5008560;28;20025;-67
2022/06/15 12:32:37;;;;;;;3.88;1.88;;;28.90;40.50;;;;;;5010391;28;20053;-67
2022/06/15 12:35:21;;;;;;;3.65;2.25;;;29.20;40.20;;;;;;5039782;28;20025;-67
2022/06/15 12:38:42;;;;;;;4.15;1.95;;;29.30;41.80;;;;;;5040675;28;20029;-66
2022/06/15 12:43:59;;;;;;;2.13;1.92;;;29.60;40.10;;;;;;5012263;28;20028;-67
2022/06/15 12:46:24;;;;;;;4.68;1.90;;;29.70;40.40;;;;;;5023201;28;20030;-67
2022/06/15 12:49:21;;;;;;;3.40;1.98;;;29.90;40.20;;;;;;5040679;28;20024;-66
2022/06/15 12:52:32;;;;;;;3.15;1.80;;;30.10;41.20;;;;;;5040730;28;20195;-66
2022/06/15 12:55:33;;;;;;;3.40;1.77;;;30.30;39.60;;;;;;5039534;28;20404;-66
2022/06/15 12:58:30;;;;;;;3.17;1.80;;;30.50;39.50;;;;;;5019566;28;20041;-67
2022/06/15 13:01:17;;;;;;;1.88;1.50;;;30.70;36.80;;;;;;5044565;28;20270;-66
2022/06/15 13:03:57;;;;;;;4.57;1.77;;;30.90;35.00;;;;;;5022545;28;20025;-67
2022/06/15 13:06:31;;;;;;;3.05;1.60;;;31.00;34.50;;;;;;5024381;28;20030;-66
2022/06/15 13:09:20;;;;;;;1.10;1.00;;;31.20;34.60;;;;;;5024160;28;20021;-67
2022/06/15 13:12:12;;;;;;;2.15;1.83;;;31.30;35.00;;;;;;5043924;28;20025;-67
2022/06/15 13:15:00;;;;;;;2.90;2.05;;;31.40;34.90;;;;;;5023211;28;20030;-67
2022/06/15 13:17:31;;;;;;;4.63;1.90;;;31.60;34.90;;;;;;5044194;28;20094;-66
2022/06/15 13:20:06;;;;;;;2.53;1.75;;;31.70;34.80;;;;;;5026521;28;20036;-67
2022/06/15 13:22:32;;;;;;;4.93;2.28;;;31.80;35.10;;;;;;5026450;28;20036;-67
2022/06/15 13:25:07;;;;;;;;;;;31.90;35.90;;;;;;5010274;28;20033;-67
2022/06/15 13:27:44;;;;;;;3.95;1.83;;;32.10;36.60;;;;;;5043728;28;19905;-67
2022/06/15 13:30:19;;;;;;;2.40;2.17;;;32.40;34.10;;;;;;5027757;28;20093;-67
2022/06/15 13:33:09;;;;;;;3.78;2.17;;;32.50;37.60;;;;;;5043674;28;20021;-67
2022/06/15 13:35:43;;;;;;;3.88;1.77;;;32.50;36.30;;;;;;5022571;28;20149;-67
2022/06/15 13:38:28;;;;;;;3.35;1.67;;;32.60;37.00;;;;;;5006174;28;20340;-67
2022/06/15 13:40:53;;;;;;;6.43;3.47;;;32.70;37.50;;;;;;5008296;28;20041;-67
2022/06/15 13:43:20;;;;;;;2.83;2.33;;;33.10;34.80;;;;;;5025764;28;20046;-67
2022/06/15 13:45:46;;;;;;;3.60;2.13;;;33.50;34.50;;;;;;5043652;28;20025;-67